createdAt,value
2016-08-08T00:00:15.548Z,14.84
2016-08-08T00:01:31.235Z,14.85
2016-08-08T00:02:13.894Z,14.88
2016-08-08T00:03:15.328Z,14.89
2016-08-08T00:04:13.988Z,14.83
2016-08-08T00:05:13.143Z,14.82
2016-08-08T00:07:19.447Z,14.84
2016-08-08T00:08:24.489Z,14.81
2016-08-08T00:09:13.772Z,14.85
2016-08-08T00:16:14.608Z,14.73
2016-08-08T00:19:14.083Z,14.65
2016-08-08T00:20:13.527Z,14.68
2016-08-08T00:22:14.603Z,14.62
2016-08-08T00:23:19.991Z,14.65
2016-08-08T00:24:14.739Z,14.64
2016-08-08T00:25:14.777Z,14.62
2016-08-08T00:26:14.203Z,14.62
2016-08-08T00:27:14.380Z,14.63
2016-08-08T00:28:14.280Z,14.60
2016-08-08T00:31:13.780Z,14.60
2016-08-08T00:32:14.096Z,14.60
2016-08-08T00:34:13.665Z,14.62
2016-08-08T00:35:13.932Z,14.59
2016-08-08T00:36:31.045Z,14.59
2016-08-08T00:37:13.613Z,14.62
2016-08-08T00:38:14.723Z,14.59
2016-08-08T00:39:14.307Z,14.57
2016-08-08T00:40:17.135Z,14.55
2016-08-08T00:41:13.790Z,14.52
2016-08-08T00:42:13.492Z,14.54
2016-08-08T00:43:16.241Z,14.52
2016-08-08T00:44:14.478Z,14.60
2016-08-08T00:46:49.395Z,14.73
2016-08-08T00:47:17.919Z,14.80
2016-08-08T00:49:13.527Z,14.62
2016-08-08T01:03:14.812Z,14.61
2016-08-08T01:10:13.770Z,14.52
2016-08-08T01:11:14.764Z,14.48
2016-08-08T01:12:13.704Z,14.44
2016-08-08T01:13:13.805Z,14.43
2016-08-08T01:14:13.652Z,14.44
2016-08-08T01:16:20.048Z,14.52
2016-08-08T01:17:19.236Z,14.54
2016-08-08T01:18:13.793Z,14.45
2016-08-08T01:19:19.671Z,14.51
2016-08-08T01:25:15.180Z,14.42
2016-08-08T01:26:13.738Z,14.42
2016-08-08T01:27:14.287Z,14.50
2016-08-08T01:28:15.325Z,14.53
2016-08-08T01:29:14.522Z,14.44
2016-08-08T01:30:13.707Z,14.51
2016-08-08T01:33:14.157Z,14.42
2016-08-08T01:34:18.992Z,14.42
2016-08-08T01:38:13.589Z,14.51
2016-08-08T01:44:22.363Z,14.43
2016-08-08T01:46:13.817Z,14.32
2016-08-08T01:49:15.311Z,14.39
2016-08-08T01:51:14.896Z,14.40
2016-08-08T01:52:14.541Z,14.39
2016-08-08T01:55:14.057Z,14.33
2016-08-08T01:56:19.185Z,14.44
2016-08-08T01:58:25.420Z,14.45
2016-08-08T02:03:21.936Z,14.40
2016-08-08T02:05:13.647Z,14.38
2016-08-08T02:08:20.467Z,14.43
2016-08-08T02:09:14.870Z,14.43
2016-08-08T02:10:13.531Z,14.38
2016-08-08T02:12:14.805Z,14.40
2016-08-08T02:13:14.002Z,14.39
2016-08-08T02:14:15.294Z,14.40
2016-08-08T02:15:20.160Z,14.36
2016-08-08T02:16:14.013Z,14.37
2016-08-08T02:17:27.932Z,14.34
2016-08-08T02:18:18.668Z,14.30
2016-08-08T02:19:13.545Z,14.44
2016-08-08T02:20:13.626Z,14.47
2016-08-08T02:21:13.645Z,14.45
2016-08-08T02:22:13.785Z,14.46
2016-08-08T02:23:19.386Z,14.50
2016-08-08T02:24:16.237Z,14.42
2016-08-08T02:26:22.593Z,14.39
2016-08-08T02:27:14.945Z,14.42
2016-08-08T02:28:20.378Z,14.39
2016-08-08T02:30:13.401Z,14.45
2016-08-08T02:32:15.000Z,14.41
2016-08-08T02:33:20.188Z,14.47
2016-08-08T02:34:14.106Z,14.54
2016-08-08T02:35:14.104Z,14.49
2016-08-08T02:36:15.051Z,14.46
2016-08-08T02:37:17.651Z,14.45
2016-08-08T02:38:13.853Z,14.44
2016-08-08T02:39:14.327Z,14.42
2016-08-08T02:40:17.281Z,14.40
2016-08-08T02:45:14.934Z,14.38
2016-08-08T02:46:14.112Z,14.34
2016-08-08T02:47:19.353Z,14.35
2016-08-08T02:48:19.134Z,14.44
2016-08-08T02:49:14.625Z,14.41
2016-08-08T02:50:14.049Z,14.40
2016-08-08T02:55:14.293Z,14.34
2016-08-08T02:56:14.286Z,14.37
2016-08-08T02:58:14.835Z,14.27
2016-08-08T02:59:14.378Z,14.28
2016-08-08T03:00:13.097Z,14.29
2016-08-08T03:01:13.883Z,14.28
2016-08-08T03:03:13.902Z,14.26
2016-08-08T03:04:14.103Z,14.29
2016-08-08T03:05:20.221Z,14.30
2016-08-08T03:07:15.636Z,14.22
2016-08-08T03:08:15.410Z,14.19
2016-08-08T03:09:32.703Z,14.15
2016-08-08T03:10:16.821Z,14.16
2016-08-08T03:13:20.485Z,14.14
2016-08-08T03:17:14.136Z,14.21
2016-08-08T03:22:14.514Z,14.18
2016-08-08T03:24:16.242Z,14.20
2016-08-08T03:25:13.919Z,14.23
2016-08-08T03:28:14.408Z,14.28
2016-08-08T03:29:15.131Z,14.27
2016-08-08T03:30:14.677Z,14.21
2016-08-08T03:33:15.942Z,14.17
2016-08-08T03:35:21.984Z,14.17
2016-08-08T03:36:19.801Z,14.25
2016-08-08T03:37:14.295Z,14.26
2016-08-08T03:38:15.656Z,14.25
2016-08-08T03:39:15.776Z,14.24
2016-08-08T03:40:23.264Z,14.19
2016-08-08T03:43:16.427Z,14.28
2016-08-08T03:45:14.191Z,14.22
2016-08-08T03:46:13.734Z,14.37
2016-08-08T03:48:14.574Z,14.31
2016-08-08T03:49:15.779Z,14.21
2016-08-08T03:50:15.269Z,14.27
2016-08-08T04:05:21.828Z,14.12
2016-08-08T04:06:16.678Z,14.18
2016-08-08T04:07:15.657Z,14.24
2016-08-08T04:08:22.727Z,14.29
2016-08-08T04:10:15.452Z,14.27
2016-08-08T04:13:27.827Z,14.20
2016-08-08T04:14:15.577Z,14.18
2016-08-08T04:16:19.985Z,14.21
2016-08-08T04:17:14.884Z,14.25
2016-08-08T04:18:14.900Z,14.19
2016-08-08T04:19:17.250Z,14.22
2016-08-08T04:20:17.271Z,14.20
2016-08-08T04:22:12.817Z,14.21
2016-08-08T04:23:15.288Z,14.20
2016-08-08T04:24:19.176Z,14.18
2016-08-08T04:25:32.403Z,14.16
2016-08-08T04:26:27.234Z,14.21
2016-08-08T04:28:23.098Z,14.23
2016-08-08T04:29:21.320Z,14.26
2016-08-08T04:30:16.767Z,14.23
2016-08-08T04:32:14.448Z,14.22
2016-08-08T04:33:27.959Z,14.27
2016-08-08T04:34:22.500Z,14.21
2016-08-08T04:36:22.930Z,14.20
2016-08-08T04:37:14.800Z,14.22
2016-08-08T04:43:15.912Z,14.36
2016-08-08T04:44:16.240Z,14.30
2016-08-08T04:50:09.346Z,14.45
2016-08-08T04:50:14.542Z,14.41
2016-08-08T04:53:14.380Z,14.44
2016-08-08T04:56:28.375Z,14.65
2016-08-08T04:57:15.752Z,14.63
2016-08-08T04:58:16.899Z,14.63
2016-08-08T04:59:15.840Z,14.65
2016-08-08T05:00:18.437Z,14.68
2016-08-08T05:02:20.672Z,14.76
2016-08-08T05:04:29.968Z,14.73
2016-08-08T05:05:17.531Z,14.75
2016-08-08T05:06:15.763Z,14.91
2016-08-08T05:07:15.040Z,15.01
2016-08-08T05:08:22.139Z,14.96
2016-08-08T05:09:46.097Z,14.91
2016-08-08T05:11:16.005Z,14.94
2016-08-08T05:12:22.549Z,14.99
2016-08-08T05:13:21.192Z,14.99
2016-08-08T05:15:15.012Z,15.03
2016-08-08T05:16:16.048Z,15.00
2016-08-08T05:17:12.166Z,15.02
2016-08-08T05:18:15.621Z,15.01
2016-08-08T05:19:25.647Z,15.04
2016-08-08T05:20:15.828Z,15.07
2016-08-08T05:22:25.955Z,15.17
2016-08-08T05:23:26.978Z,15.24
2016-08-08T05:24:29.345Z,15.18
2016-08-08T05:25:26.470Z,15.28
2016-08-08T05:26:16.436Z,15.35
2016-08-08T05:27:12.908Z,15.40
2016-08-08T05:28:15.726Z,15.46
2016-08-08T05:29:10.438Z,15.52
2016-08-08T05:30:22.547Z,15.54
2016-08-08T05:31:16.393Z,15.52
2016-08-08T05:32:14.633Z,15.60
2016-08-08T05:33:15.673Z,15.62
2016-08-08T05:34:10.604Z,15.70
2016-08-08T05:35:15.704Z,15.72
2016-08-08T05:36:09.369Z,15.70
2016-08-08T05:37:10.511Z,15.70
2016-08-08T05:38:10.282Z,15.70
2016-08-08T05:39:21.361Z,15.67
2016-08-08T05:40:16.085Z,15.74
2016-08-08T05:41:15.374Z,15.78
2016-08-08T05:42:11.826Z,15.85
2016-08-08T05:43:15.498Z,15.94
2016-08-08T05:44:16.077Z,15.99
2016-08-08T05:45:15.468Z,16.01
2016-08-08T05:48:25.919Z,16.09
2016-08-08T05:49:21.354Z,16.14
2016-08-08T05:50:15.865Z,16.16
2016-08-08T05:51:10.138Z,16.19
2016-08-08T05:52:14.775Z,16.27
2016-08-08T05:53:09.852Z,16.36
2016-08-08T05:54:16.390Z,16.41
2016-08-08T05:55:24.798Z,16.41
2016-08-08T05:56:22.772Z,16.39
2016-08-08T05:58:22.069Z,16.48
2016-08-08T05:59:21.136Z,16.56
2016-08-08T06:00:16.735Z,16.51
2016-08-08T06:01:16.225Z,16.54
2016-08-08T06:02:16.599Z,16.53
2016-08-08T06:03:10.962Z,16.56
2016-08-08T06:04:15.120Z,16.58
2016-08-08T06:05:15.483Z,16.59
2016-08-08T06:06:14.989Z,16.63
2016-08-08T06:07:15.887Z,16.68
2016-08-08T06:08:16.269Z,16.77
2016-08-08T06:11:17.965Z,16.86
2016-08-08T06:12:16.337Z,16.84
2016-08-08T06:15:15.910Z,17.00
2016-08-08T06:17:17.789Z,17.04
2016-08-08T06:18:16.013Z,17.05
2016-08-08T06:22:21.441Z,17.08
2016-08-08T06:23:21.370Z,17.15
2016-08-08T06:24:17.025Z,17.16
2016-08-08T06:25:19.490Z,17.18
2016-08-08T06:26:21.415Z,17.22
2016-08-08T06:27:17.495Z,17.26
2016-08-08T06:28:13.577Z,17.28
2016-08-08T06:29:23.174Z,17.33
2016-08-08T06:31:20.366Z,17.35
2016-08-08T06:32:15.754Z,17.32
2016-08-08T06:33:25.504Z,17.34
2016-08-08T06:34:16.342Z,17.38
2016-08-08T06:35:20.093Z,17.45
2016-08-08T06:36:17.040Z,17.49
2016-08-08T06:37:20.850Z,17.46
2016-08-08T06:38:16.317Z,17.43
2016-08-08T06:39:21.395Z,17.49
2016-08-08T06:42:11.169Z,17.68
2016-08-08T06:43:09.995Z,17.70
2016-08-08T06:44:20.900Z,17.70
2016-08-08T06:45:22.297Z,17.74
2016-08-08T06:46:20.341Z,17.70
2016-08-08T06:47:19.919Z,17.70
2016-08-08T06:48:14.683Z,17.76
2016-08-08T06:49:16.194Z,17.86
2016-08-08T06:52:15.015Z,17.91
2016-08-08T06:53:25.751Z,18.00
2016-08-08T06:58:15.854Z,18.14
2016-08-08T06:59:22.440Z,18.12
2016-08-08T07:02:19.164Z,18.33
2016-08-08T07:04:14.811Z,18.42
2016-08-08T07:06:21.412Z,18.50
2016-08-08T07:07:17.598Z,18.52
2016-08-08T07:08:15.792Z,18.55
2016-08-08T07:09:21.893Z,18.57
2016-08-08T07:10:15.685Z,18.54
2016-08-08T07:12:14.026Z,18.64
2016-08-08T07:13:17.640Z,18.64
2016-08-08T07:14:16.676Z,18.58
2016-08-08T07:15:21.184Z,18.62
2016-08-08T07:16:16.424Z,18.63
2016-08-08T07:17:14.760Z,18.73
2016-08-08T07:18:22.067Z,18.80
2016-08-08T07:19:16.773Z,18.75
2016-08-08T07:20:15.240Z,18.84
2016-08-08T07:21:22.602Z,18.86
2016-08-08T07:23:19.955Z,18.88
2016-08-08T07:24:12.513Z,18.92
2016-08-08T07:25:20.975Z,18.99
2016-08-08T07:26:23.103Z,19.06
2016-08-08T07:27:16.715Z,19.07
2016-08-08T07:28:14.736Z,19.15
2016-08-08T07:29:15.791Z,19.17
2016-08-08T07:30:20.397Z,19.19
2016-08-08T07:32:16.922Z,19.21
2016-08-08T07:33:15.277Z,19.24
2016-08-08T07:34:24.173Z,19.31
2016-08-08T07:36:17.709Z,19.31
2016-08-08T07:37:09.806Z,19.38
2016-08-08T07:38:17.578Z,19.43
2016-08-08T07:39:21.633Z,19.49
2016-08-08T07:42:23.163Z,19.41
2016-08-08T07:43:15.103Z,19.44
2016-08-08T07:44:14.647Z,19.56
2016-08-08T07:45:23.454Z,19.68
2016-08-08T07:47:22.122Z,19.75
2016-08-08T07:49:20.716Z,19.79
2016-08-08T07:50:20.498Z,19.72
2016-08-08T07:52:16.872Z,19.74
2016-08-08T07:53:22.622Z,19.75
2016-08-08T07:54:15.814Z,19.75
2016-08-08T07:55:27.996Z,19.80
2016-08-08T07:56:22.132Z,19.86
2016-08-08T08:00:17.412Z,19.88
2016-08-08T08:01:18.669Z,19.88
2016-08-08T08:02:23.444Z,19.89
2016-08-08T08:03:21.485Z,19.97
2016-08-08T08:04:22.576Z,19.98
2016-08-08T08:05:17.577Z,20.12
2016-08-08T08:06:16.421Z,20.05
2016-08-08T08:07:22.426Z,20.05
2016-08-08T08:08:16.236Z,20.07
2016-08-08T08:09:21.483Z,20.09
2016-08-08T08:10:22.595Z,20.19
2016-08-08T08:11:21.697Z,20.28
2016-08-08T08:12:15.322Z,20.17
2016-08-08T08:13:15.944Z,20.23
2016-08-08T08:14:25.996Z,20.17
2016-08-08T08:15:20.275Z,20.12
2016-08-08T08:16:26.621Z,20.15
2016-08-08T08:17:26.072Z,20.14
2016-08-08T08:22:15.988Z,20.36
2016-08-08T08:24:27.485Z,20.46
2016-08-08T08:25:20.023Z,20.54
2016-08-08T08:26:18.139Z,20.62
2016-08-08T08:27:22.113Z,20.57
2016-08-08T08:29:22.915Z,20.62
2016-08-08T08:30:17.877Z,20.69
2016-08-08T08:32:24.393Z,20.72
2016-08-08T08:33:22.619Z,20.69
2016-08-08T08:34:27.258Z,20.68
2016-08-08T08:35:17.602Z,20.64
2016-08-08T08:36:16.681Z,20.69
2016-08-08T08:37:16.498Z,20.60
2016-08-08T08:38:22.693Z,20.58
2016-08-08T08:39:16.851Z,20.58
2016-08-08T08:41:22.044Z,20.53
2016-08-08T08:43:15.088Z,20.62
2016-08-08T08:46:22.270Z,20.83
2016-08-08T08:47:16.905Z,20.83
2016-08-08T08:48:27.988Z,21.05
2016-08-08T08:49:27.958Z,21.05
2016-08-08T08:50:14.719Z,20.99
2016-08-08T08:52:17.258Z,20.88
2016-08-08T08:53:18.998Z,20.91
2016-08-08T08:54:16.076Z,21.06
2016-08-08T08:55:15.964Z,21.16
2016-08-08T08:56:22.848Z,21.21
2016-08-08T08:57:21.804Z,21.14
2016-08-08T09:00:18.784Z,21.19
2016-08-08T09:03:26.728Z,21.21
2016-08-08T09:04:17.887Z,21.20
2016-08-08T09:05:22.284Z,21.24
2016-08-08T09:06:16.575Z,21.30
2016-08-08T09:07:12.697Z,21.33
2016-08-08T09:09:23.232Z,21.28
2016-08-08T09:10:27.393Z,21.26
2016-08-08T09:11:16.600Z,21.24
2016-08-08T09:12:16.168Z,21.29
2016-08-08T09:13:16.894Z,21.26
2016-08-08T09:14:22.996Z,21.47
2016-08-08T09:15:27.483Z,21.44
2016-08-08T09:17:16.723Z,21.54
2016-08-08T09:18:20.483Z,21.61
2016-08-08T09:19:18.262Z,21.48
2016-08-08T09:20:15.898Z,21.51
2016-08-08T09:23:15.894Z,21.42
2016-08-08T09:24:27.920Z,21.56
2016-08-08T09:25:21.591Z,21.64
2016-08-08T09:28:15.712Z,21.57
2016-08-08T09:29:13.701Z,21.57
2016-08-08T09:32:19.129Z,21.60
2016-08-08T09:33:34.259Z,21.69
2016-08-08T09:36:15.216Z,21.69
2016-08-08T09:37:15.167Z,21.74
2016-08-08T09:38:12.954Z,21.73
2016-08-08T09:40:14.709Z,22.01
2016-08-08T09:42:22.384Z,21.93
2016-08-08T09:46:13.583Z,21.80
2016-08-08T09:47:11.301Z,21.76
2016-08-08T09:49:22.570Z,21.86
2016-08-08T09:50:16.914Z,21.88
2016-08-08T09:51:22.576Z,21.95
2016-08-08T09:52:22.666Z,22.05
2016-08-08T09:53:11.703Z,21.94
2016-08-08T09:54:16.367Z,21.85
2016-08-08T09:55:14.511Z,21.82
2016-08-08T09:56:16.464Z,21.83
2016-08-08T09:57:20.703Z,21.92
2016-08-08T10:00:25.997Z,21.97
2016-08-08T10:02:16.930Z,22.06
2016-08-08T10:03:22.596Z,22.13
2016-08-08T10:04:19.138Z,22.23
2016-08-08T10:05:16.537Z,22.31
2016-08-08T10:06:23.169Z,22.47
2016-08-08T10:07:21.945Z,22.57
2016-08-08T10:08:21.217Z,22.54
2016-08-08T10:09:11.839Z,22.43
2016-08-08T10:10:15.624Z,22.36
2016-08-08T10:11:15.390Z,22.34
2016-08-08T10:12:26.604Z,22.44
2016-08-08T10:13:22.488Z,22.44
2016-08-08T10:15:16.297Z,22.45
2016-08-08T10:16:23.035Z,22.65
2016-08-08T10:17:20.542Z,22.71
2016-08-08T10:20:19.985Z,22.84
2016-08-08T10:22:14.532Z,22.60
2016-08-08T10:24:17.116Z,22.57
2016-08-08T10:25:15.324Z,22.57
2016-08-08T10:27:15.189Z,22.66
2016-08-08T10:28:09.932Z,22.66
2016-08-08T10:29:09.553Z,22.81
2016-08-08T10:30:16.755Z,22.72
2016-08-08T10:32:13.625Z,22.94
2016-08-08T10:33:24.708Z,22.88
2016-08-08T10:34:12.872Z,23.01
2016-08-08T10:35:12.109Z,22.93
2016-08-08T10:37:22.252Z,22.72
2016-08-08T10:38:09.661Z,22.67
2016-08-08T10:39:15.870Z,22.66
2016-08-08T10:40:21.707Z,22.78
2016-08-08T10:42:16.199Z,22.84
2016-08-08T10:43:27.061Z,22.79
2016-08-08T10:44:23.088Z,22.80
2016-08-08T10:45:10.645Z,22.85
2016-08-08T10:46:16.896Z,22.94
2016-08-08T10:47:16.550Z,23.07
2016-08-08T10:48:21.661Z,23.12
2016-08-08T10:49:16.879Z,23.03
2016-08-08T10:50:08.803Z,22.99
2016-08-08T10:52:15.056Z,23.08
2016-08-08T10:54:16.223Z,23.32
2016-08-08T10:56:16.870Z,23.09
2016-08-08T10:57:19.529Z,22.99
2016-08-08T10:59:22.801Z,23.05
2016-08-08T11:00:15.913Z,23.06
2016-08-08T11:02:15.861Z,23.06
2016-08-08T11:03:21.268Z,23.10
2016-08-08T11:04:17.602Z,23.07
2016-08-08T11:05:12.220Z,23.11
2016-08-08T11:06:28.402Z,23.12
2016-08-08T11:07:12.527Z,23.06
2016-08-08T11:08:17.324Z,23.04
2016-08-08T11:09:16.805Z,23.01
2016-08-08T11:10:15.958Z,23.13
2016-08-08T11:11:12.122Z,23.20
2016-08-08T11:13:17.282Z,23.32
2016-08-08T11:14:12.680Z,23.19
2016-08-08T11:15:14.364Z,23.22
2016-08-08T11:16:19.761Z,23.19
2016-08-08T11:17:27.346Z,23.12
2016-08-08T11:19:14.376Z,23.15
2016-08-08T11:20:11.538Z,23.11
2016-08-08T11:21:16.504Z,23.15
2016-08-08T11:22:16.531Z,23.21
2016-08-08T11:25:15.722Z,23.12
2016-08-08T11:26:12.046Z,23.08
2016-08-08T11:27:13.585Z,22.96
2016-08-08T11:28:15.973Z,23.04
2016-08-08T11:29:18.041Z,23.25
2016-08-08T11:30:16.782Z,23.20
2016-08-08T11:32:20.272Z,22.99
2016-08-08T11:33:20.383Z,23.11
2016-08-08T11:34:17.100Z,23.17
2016-08-08T11:35:15.759Z,23.13
2016-08-08T11:36:17.510Z,23.36
2016-08-08T11:37:17.515Z,23.32
2016-08-08T11:39:24.656Z,23.37
2016-08-08T11:40:21.984Z,23.42
2016-08-08T11:41:22.163Z,23.49
2016-08-08T11:43:19.672Z,23.45
2016-08-08T11:44:23.366Z,23.32
2016-08-08T11:45:22.141Z,23.25
2016-08-08T11:46:27.634Z,23.18
2016-08-08T11:47:15.497Z,23.23
2016-08-08T11:48:27.462Z,23.53
2016-08-08T11:49:17.118Z,23.59
2016-08-08T11:50:16.741Z,23.78
2016-08-08T11:52:15.557Z,23.90
2016-08-08T11:53:17.072Z,23.88
2016-08-08T11:54:26.415Z,23.82
2016-08-08T11:55:23.137Z,23.68
2016-08-08T11:56:20.195Z,23.74
2016-08-08T11:58:16.968Z,23.46
2016-08-08T12:00:22.643Z,23.46
2016-08-08T12:01:31.084Z,23.59
2016-08-08T12:02:22.018Z,23.62
2016-08-08T12:03:20.897Z,23.71
2016-08-08T12:04:13.601Z,23.74
2016-08-08T12:05:11.980Z,23.82
2016-08-08T12:07:15.379Z,23.81
2016-08-08T12:08:15.406Z,23.81
2016-08-08T12:09:16.899Z,24.02
2016-08-08T12:10:22.029Z,24.03
2016-08-08T12:12:22.341Z,24.08
2016-08-08T12:13:26.493Z,24.27
2016-08-08T12:14:22.975Z,24.34
2016-08-08T12:15:10.750Z,24.26
2016-08-08T12:16:16.209Z,24.23
2016-08-08T12:17:26.023Z,24.18
2016-08-08T12:18:11.859Z,24.14
2016-08-08T12:19:11.720Z,24.04
2016-08-08T12:20:21.631Z,24.01
2016-08-08T12:22:23.905Z,23.90
2016-08-08T12:23:17.640Z,24.03
2016-08-08T12:25:15.701Z,23.96
2016-08-08T12:26:21.836Z,24.00
2016-08-08T12:27:15.024Z,24.10
2016-08-08T12:28:15.644Z,24.10
2016-08-08T12:30:21.995Z,23.92
2016-08-08T12:32:22.801Z,24.11
2016-08-08T12:33:14.036Z,24.09
2016-08-08T12:34:15.264Z,24.09
2016-08-08T12:35:16.182Z,24.12
2016-08-08T12:36:10.631Z,24.25
2016-08-08T12:37:10.127Z,24.33
2016-08-08T12:38:17.281Z,24.32
2016-08-08T12:39:24.862Z,24.23
2016-08-08T12:40:33.150Z,24.46
2016-08-08T12:41:15.204Z,24.48
2016-08-08T12:42:21.358Z,24.59
2016-08-08T12:43:18.809Z,24.58
2016-08-08T12:44:11.902Z,24.70
2016-08-08T12:45:10.187Z,24.85
2016-08-08T12:46:10.709Z,24.94
2016-08-08T12:47:21.646Z,25.09
2016-08-08T12:48:22.122Z,25.02
2016-08-08T12:50:16.588Z,24.88
2016-08-08T12:51:11.666Z,24.96
2016-08-08T12:53:27.605Z,25.12
2016-08-08T12:54:22.087Z,24.98
2016-08-08T12:55:16.249Z,25.07
2016-08-08T12:56:17.262Z,25.12
2016-08-08T13:00:19.152Z,25.28
2016-08-08T13:01:20.702Z,25.37
2016-08-08T13:02:15.796Z,25.37
2016-08-08T13:03:11.874Z,25.43
2016-08-08T13:04:22.073Z,25.37
2016-08-08T13:06:21.700Z,25.51
2016-08-08T13:07:50.166Z,25.71
2016-08-08T13:08:20.890Z,25.72
2016-08-08T13:09:10.224Z,25.78
2016-08-08T13:10:11.082Z,25.99
2016-08-08T13:11:13.257Z,25.80
2016-08-08T13:12:20.328Z,25.92
2016-08-08T13:13:22.123Z,25.93
2016-08-08T13:15:15.893Z,25.77
2016-08-08T13:16:12.827Z,25.68
2016-08-08T13:17:18.094Z,25.91
2016-08-08T13:18:11.745Z,26.04
2016-08-08T13:19:21.436Z,26.24
2016-08-08T13:20:13.140Z,26.41
2016-08-08T13:21:12.531Z,26.56
2016-08-08T13:22:20.635Z,26.52
2016-08-08T13:23:16.762Z,26.45
2016-08-08T13:24:22.799Z,26.41
2016-08-08T13:25:11.131Z,26.48
2016-08-08T13:27:10.982Z,26.49
2016-08-08T13:28:21.012Z,26.60
2016-08-08T13:29:17.182Z,26.61
2016-08-08T13:30:25.178Z,26.78
2016-08-08T13:31:16.763Z,26.95
2016-08-08T13:32:26.252Z,26.94
2016-08-08T13:34:09.995Z,26.90
2016-08-08T13:35:15.594Z,26.98
2016-08-08T13:36:11.078Z,27.11
2016-08-08T13:37:18.981Z,27.09
2016-08-08T13:38:16.324Z,27.10
2016-08-08T13:39:11.217Z,27.28
2016-08-08T13:40:13.525Z,27.35
2016-08-08T13:41:14.309Z,27.49
2016-08-08T13:42:15.776Z,27.65
2016-08-08T13:43:16.421Z,27.75
2016-08-08T13:44:16.401Z,27.73
2016-08-08T13:46:10.748Z,27.68
2016-08-08T13:47:16.322Z,27.45
2016-08-08T13:49:18.374Z,27.79
2016-08-08T13:50:17.056Z,27.88
2016-08-08T13:51:16.371Z,28.03
2016-08-08T13:52:20.768Z,28.05
2016-08-08T13:53:17.182Z,28.19
2016-08-08T13:54:15.691Z,28.30
2016-08-08T13:56:23.241Z,28.38
2016-08-08T13:57:23.342Z,28.44
2016-08-08T13:58:16.988Z,28.45
2016-08-08T13:59:16.983Z,28.27
2016-08-08T14:01:17.604Z,28.63
2016-08-08T14:03:11.613Z,28.73
2016-08-08T14:04:22.262Z,28.67
2016-08-08T14:05:22.019Z,28.49
2016-08-08T14:07:11.161Z,28.87
2016-08-08T14:08:11.478Z,28.60
2016-08-08T14:09:16.501Z,28.68
2016-08-08T14:10:21.613Z,28.62
2016-08-08T14:11:11.004Z,28.97
2016-08-08T14:12:10.900Z,28.90
2016-08-08T14:13:11.223Z,28.64
2016-08-08T14:15:20.741Z,28.53
2016-08-08T14:16:18.600Z,28.52
2016-08-08T14:17:16.891Z,28.48
2016-08-08T14:18:17.667Z,28.28
2016-08-08T14:19:15.278Z,28.08
2016-08-08T14:21:11.296Z,27.93
2016-08-08T14:23:17.353Z,27.63
2016-08-08T14:24:16.603Z,27.51
2016-08-08T14:25:14.104Z,27.56
2016-08-08T14:26:10.136Z,27.48
2016-08-08T14:27:11.530Z,27.43
2016-08-08T14:28:11.305Z,27.18
2016-08-08T14:29:17.633Z,27.15
2016-08-08T14:30:22.205Z,27.08
2016-08-08T14:31:10.664Z,26.99
2016-08-08T14:32:21.897Z,27.10
2016-08-08T14:33:24.157Z,27.09
2016-08-08T14:34:22.265Z,26.94
2016-08-08T14:35:09.625Z,26.93
2016-08-08T14:36:18.195Z,26.85
2016-08-08T14:38:23.271Z,26.75
2016-08-08T14:39:15.921Z,26.58
2016-08-08T14:40:23.985Z,26.35
2016-08-08T14:41:20.273Z,26.28
2016-08-08T14:43:16.657Z,26.44
2016-08-08T14:44:15.776Z,26.55
2016-08-08T14:45:15.514Z,26.46
2016-08-08T14:47:18.678Z,26.63
2016-08-08T14:49:16.636Z,26.51
2016-08-08T14:50:10.721Z,26.50
2016-08-08T14:51:12.091Z,26.55
2016-08-08T14:52:22.630Z,26.49
2016-08-08T14:53:22.236Z,26.54
2016-08-08T14:54:25.460Z,26.45
2016-08-08T14:55:10.956Z,26.42
2016-08-08T14:56:22.156Z,26.45
2016-08-08T14:58:16.930Z,26.49
2016-08-08T14:59:11.061Z,26.45
2016-08-08T15:00:17.052Z,26.42
2016-08-08T15:02:19.543Z,26.51
2016-08-08T15:03:15.998Z,26.55
2016-08-08T15:04:11.074Z,26.56
2016-08-08T15:05:16.052Z,26.63
2016-08-08T15:06:23.507Z,26.73
2016-08-08T15:07:13.217Z,26.77
2016-08-08T15:08:11.887Z,26.80
2016-08-08T15:09:21.106Z,26.71
2016-08-08T15:10:21.762Z,26.77
2016-08-08T15:11:21.298Z,26.89
2016-08-08T15:12:23.623Z,26.90
2016-08-08T15:13:16.202Z,26.93
2016-08-08T15:14:21.216Z,26.84
2016-08-08T15:15:19.076Z,26.93
2016-08-08T15:16:23.793Z,27.05
2016-08-08T15:17:20.837Z,27.14
2016-08-08T15:18:11.086Z,27.36
2016-08-08T15:19:22.588Z,27.55
2016-08-08T15:20:21.437Z,27.76
2016-08-08T15:21:27.870Z,27.94
2016-08-08T15:22:13.104Z,27.95
2016-08-08T15:23:14.594Z,28.45
2016-08-08T15:25:27.958Z,28.99
2016-08-08T15:26:27.320Z,29.31
2016-08-08T15:27:11.804Z,29.32
2016-08-08T15:28:10.669Z,29.70
2016-08-08T15:29:16.628Z,29.73
2016-08-08T15:30:12.039Z,30.16
2016-08-08T15:31:21.696Z,30.04
2016-08-08T15:32:16.953Z,29.79
2016-08-08T15:33:17.352Z,29.83
2016-08-08T15:34:10.970Z,29.83
2016-08-08T15:35:10.645Z,30.21
2016-08-08T15:36:15.884Z,30.52
2016-08-08T15:37:10.072Z,30.84
2016-08-08T15:38:11.174Z,30.70
2016-08-08T15:39:15.184Z,30.82
2016-08-08T15:40:31.150Z,30.95
2016-08-08T15:41:10.324Z,30.69
2016-08-08T15:42:10.865Z,30.75
2016-08-08T15:43:16.433Z,30.81
2016-08-08T15:44:26.530Z,30.77
2016-08-08T15:45:10.615Z,31.12
2016-08-08T15:46:15.138Z,31.26
2016-08-08T15:47:10.116Z,31.44
2016-08-08T15:48:10.394Z,31.51
2016-08-08T15:49:09.157Z,31.38
2016-08-08T15:50:15.734Z,31.26
2016-08-08T15:51:15.700Z,31.46
2016-08-08T15:52:08.002Z,31.61
2016-08-08T15:53:10.263Z,31.78
2016-08-08T15:54:07.815Z,31.79
2016-08-08T15:55:10.024Z,31.52
2016-08-08T15:56:12.691Z,31.74
2016-08-08T15:57:15.913Z,31.21
2016-08-08T15:58:11.416Z,30.95
2016-08-08T15:59:21.354Z,31.23
2016-08-08T16:00:10.739Z,31.65
2016-08-08T16:01:10.431Z,31.35
2016-08-08T16:02:08.205Z,31.96
2016-08-08T16:03:10.767Z,31.90
2016-08-08T16:04:10.818Z,32.08
2016-08-08T16:05:08.997Z,31.88
2016-08-08T16:06:10.429Z,31.96
2016-08-08T16:07:15.025Z,31.90
2016-08-08T16:08:15.947Z,32.01
2016-08-08T16:09:10.445Z,32.20
2016-08-08T16:10:10.667Z,31.11
2016-08-08T16:11:16.416Z,31.10
2016-08-08T16:12:10.293Z,31.25
2016-08-08T16:13:15.957Z,31.35
2016-08-08T16:14:10.323Z,31.78
2016-08-08T16:15:10.756Z,32.21
2016-08-08T16:16:15.726Z,32.26
2016-08-08T16:17:10.325Z,32.34
2016-08-08T16:18:09.988Z,32.15
2016-08-08T16:19:15.446Z,32.25
2016-08-08T16:20:10.118Z,32.25
2016-08-08T16:21:10.420Z,32.33
2016-08-08T16:22:10.324Z,32.22
2016-08-08T16:23:15.652Z,31.84
2016-08-08T16:24:10.446Z,31.97
2016-08-08T16:25:10.771Z,32.24
2016-08-08T16:26:15.640Z,32.00
2016-08-08T16:27:16.446Z,32.09
2016-08-08T16:28:10.596Z,31.32
2016-08-08T16:29:10.745Z,31.13
2016-08-08T16:30:10.101Z,31.09
2016-08-08T16:31:17.142Z,31.49
2016-08-08T16:32:16.023Z,31.71
2016-08-08T16:33:15.812Z,31.48
2016-08-08T16:34:10.177Z,31.58
2016-08-08T16:35:15.529Z,31.75
2016-08-08T16:36:10.426Z,31.17
2016-08-08T16:37:16.744Z,31.31
2016-08-08T16:38:10.755Z,31.65
2016-08-08T16:39:11.509Z,31.81
2016-08-08T16:40:10.341Z,31.88
2016-08-08T16:41:10.491Z,31.33
2016-08-08T16:42:10.351Z,30.90
2016-08-08T16:43:15.765Z,31.02
2016-08-08T16:44:21.276Z,30.64
2016-08-08T16:45:10.931Z,30.75
2016-08-08T16:46:10.512Z,30.32
2016-08-08T16:47:15.553Z,29.96
2016-08-08T16:48:16.075Z,29.53
2016-08-08T16:49:21.891Z,29.58
2016-08-08T16:50:11.002Z,29.38
2016-08-08T16:51:21.162Z,29.35
2016-08-08T16:52:11.181Z,29.23
2016-08-08T16:53:16.215Z,29.05
2016-08-08T16:54:27.103Z,29.01
2016-08-08T16:55:16.638Z,28.78
2016-08-08T16:56:11.928Z,28.45
2016-08-08T16:57:17.243Z,28.28
2016-08-08T16:58:17.441Z,28.14
2016-08-08T16:59:10.183Z,27.99
2016-08-08T17:00:11.317Z,27.71
2016-08-08T17:01:16.475Z,27.84
2016-08-08T17:02:11.404Z,27.61
2016-08-08T17:03:10.429Z,27.68
2016-08-08T17:04:16.223Z,27.65
2016-08-08T17:05:15.660Z,27.49
2016-08-08T17:06:24.911Z,27.63
2016-08-08T17:07:10.684Z,27.32
2016-08-08T17:08:22.581Z,27.48
2016-08-08T17:09:15.983Z,27.52
2016-08-08T17:10:10.776Z,27.49
2016-08-08T17:11:16.338Z,27.49
2016-08-08T17:12:10.603Z,27.40
2016-08-08T17:13:27.107Z,27.33
2016-08-08T17:14:22.368Z,27.16
2016-08-08T17:16:16.631Z,27.03
2016-08-08T17:17:16.648Z,26.99